sensor_id;sensor_type;location;lat;lon;timestamp;pressure;altitude;pressure_sealevel;temperature;humidity
40075;BME280;26529;51.530;11.754;2022-08-21T00:00:43;100215.34;;;22.65;52.95
40075;BME280;26529;51.530;11.754;2022-08-21T00:03:10;100215.81;;;22.58;53.05
40075;BME280;26529;51.530;11.754;2022-08-21T00:05:43;100212.06;;;22.61;52.97
40075;BME280;26529;51.530;11.754;2022-08-21T00:08:10;100209.88;;;22.55;53.07
40075;BME280;26529;51.530;11.754;2022-08-21T00:10:35;100208.38;;;22.50;53.58
40075;BME280;26529;51.530;11.754;2022-08-21T00:13:03;100214.59;;;22.51;53.11
40075;BME280;26529;51.530;11.754;2022-08-21T00:15:31;100204.88;;;22.50;53.23
40075;BME280;26529;51.530;11.754;2022-08-21T00:17:57;100213.72;;;22.50;53.38
40075;BME280;26529;51.530;11.754;2022-08-21T00:20:23;100205.69;;;22.50;53.17
40075;BME280;26529;51.530;11.754;2022-08-21T00:22:49;100205.25;;;22.45;53.17
40075;BME280;26529;51.530;11.754;2022-08-21T00:25:16;100209.34;;;22.49;53.11
40075;BME280;26529;51.530;11.754;2022-08-21T00:27:42;100204.38;;;22.45;53.25
40075;BME280;26529;51.530;11.754;2022-08-21T00:30:09;100189.66;;;22.50;53.08
40075;BME280;26529;51.530;11.754;2022-08-21T00:32:37;100194.81;;;22.54;53.02
40075;BME280;26529;51.530;11.754;2022-08-21T00:35:04;100199.91;;;22.45;52.79
40075;BME280;26529;51.530;11.754;2022-08-21T00:37:30;100197.34;;;22.44;53.18
40075;BME280;26529;51.530;11.754;2022-08-21T00:39:55;100196.72;;;22.40;53.22
40075;BME280;26529;51.530;11.754;2022-08-21T00:42:21;100208.88;;;22.44;53.19
40075;BME280;26529;51.530;11.754;2022-08-21T00:44:48;100198.19;;;22.44;53.08
40075;BME280;26529;51.530;11.754;2022-08-21T00:47:14;100210.31;;;22.48;53.04
40075;BME280;26529;51.530;11.754;2022-08-21T00:49:40;100200.97;;;22.43;53.10
40075;BME280;26529;51.530;11.754;2022-08-21T00:52:13;100199.28;;;22.42;53.03
40075;BME280;26529;51.530;11.754;2022-08-21T00:54:41;100198.69;;;22.38;53.08
40075;BME280;26529;51.530;11.754;2022-08-21T00:57:12;100203.53;;;22.33;53.32
40075;BME280;26529;51.530;11.754;2022-08-21T00:59:40;100193.34;;;22.38;53.06
40075;BME280;26529;51.530;11.754;2022-08-21T01:02:07;100199.41;;;22.40;52.97
40075;BME280;26529;51.530;11.754;2022-08-21T01:04:34;100209.47;;;22.36;53.06
40075;BME280;26529;51.530;11.754;2022-08-21T01:06:59;100197.22;;;22.34;53.27
40075;BME280;26529;51.530;11.754;2022-08-21T01:09:26;100201.69;;;22.33;53.14
40075;BME280;26529;51.530;11.754;2022-08-21T01:11:52;100209.59;;;22.35;53.17
40075;BME280;26529;51.530;11.754;2022-08-21T01:14:17;100208.75;;;22.34;53.12
40075;BME280;26529;51.530;11.754;2022-08-21T01:16:47;100202.56;;;22.34;53.38
40075;BME280;26529;51.530;11.754;2022-08-21T01:19:14;100194.66;;;22.32;53.25
40075;BME280;26529;51.530;11.754;2022-08-21T01:21:42;100196.50;;;22.32;53.06
40075;BME280;26529;51.530;11.754;2022-08-21T01:24:08;100202.16;;;22.27;53.16
40075;BME280;26529;51.530;11.754;2022-08-21T01:26:35;100193.81;;;22.32;53.13
40075;BME280;26529;51.530;11.754;2022-08-21T01:29:30;100196.50;;;22.32;53.02
40075;BME280;26529;51.530;11.754;2022-08-21T01:31:59;100200.47;;;22.26;53.13
40075;BME280;26529;51.530;11.754;2022-08-21T01:34:24;100200.63;;;22.25;53.20
40075;BME280;26529;51.530;11.754;2022-08-21T01:36:50;100199.84;;;22.22;52.97
40075;BME280;26529;51.530;11.754;2022-08-21T01:39:16;100195.28;;;22.25;53.01
40075;BME280;26529;51.530;11.754;2022-08-21T01:41:42;100189.06;;;22.24;53.02
40075;BME280;26529;51.530;11.754;2022-08-21T01:44:08;100182.63;;;22.27;53.06
40075;BME280;26529;51.530;11.754;2022-08-21T01:46:35;100189.44;;;22.19;53.20
40075;BME280;26529;51.530;11.754;2022-08-21T01:49:00;100190.16;;;22.21;53.03
40075;BME280;26529;51.530;11.754;2022-08-21T01:51:26;100192.22;;;22.18;53.24
40075;BME280;26529;51.530;11.754;2022-08-21T01:53:51;100194.78;;;22.19;53.18
40075;BME280;26529;51.530;11.754;2022-08-21T01:56:18;100193.06;;;22.18;53.29
40075;BME280;26529;51.530;11.754;2022-08-21T01:58:45;100190.88;;;22.12;53.35
40075;BME280;26529;51.530;11.754;2022-08-21T02:01:11;100194.78;;;22.19;53.23
40075;BME280;26529;51.530;11.754;2022-08-21T02:03:37;100186.53;;;22.11;53.51
40075;BME280;26529;51.530;11.754;2022-08-21T02:06:04;100187.13;;;22.15;53.15
40075;BME280;26529;51.530;11.754;2022-08-21T02:08:30;100183.47;;;22.16;53.23
40075;BME280;26529;51.530;11.754;2022-08-21T02:10:56;100185.41;;;22.14;53.21
40075;BME280;26529;51.530;11.754;2022-08-21T02:13:22;100190.13;;;22.10;53.22
40075;BME280;26529;51.530;11.754;2022-08-21T02:15:48;100188.44;;;22.09;53.10
40075;BME280;26529;51.530;11.754;2022-08-21T02:18:13;100185.66;;;22.11;53.48
40075;BME280;26529;51.530;11.754;2022-08-21T02:20:41;100187.13;;;22.15;53.07
40075;BME280;26529;51.530;11.754;2022-08-21T02:23:08;100185.66;;;22.11;53.18
40075;BME280;26529;51.530;11.754;2022-08-21T02:25:34;100180.56;;;22.07;53.25
40075;BME280;26529;51.530;11.754;2022-08-21T02:28:04;100184.31;;;22.05;53.14
40075;BME280;26529;51.530;11.754;2022-08-21T02:30:33;100191.34;;;22.06;52.91
40075;BME280;26529;51.530;11.754;2022-08-21T02:33:00;100189.28;;;22.09;53.05
40075;BME280;26529;51.530;11.754;2022-08-21T02:35:27;100190.84;;;22.01;53.04
40075;BME280;26529;51.530;11.754;2022-08-21T02:37:55;100190.13;;;21.99;53.21
40075;BME280;26529;51.530;11.754;2022-08-21T02:40:24;100191.94;;;21.98;53.04
40075;BME280;26529;51.530;11.754;2022-08-21T02:42:50;100190.59;;;21.92;53.38
40075;BME280;26529;51.530;11.754;2022-08-21T02:45:17;100193.28;;;21.92;53.23
40075;BME280;26529;51.530;11.754;2022-08-21T02:47:58;100194.84;;;21.95;53.07
40075;BME280;26529;51.530;11.754;2022-08-21T02:50:31;100196.91;;;21.91;53.14
40075;BME280;26529;51.530;11.754;2022-08-21T02:52:57;100203.69;;;21.95;53.14
40075;BME280;26529;51.530;11.754;2022-08-21T02:55:25;100201.50;;;21.89;53.27
40075;BME280;26529;51.530;11.754;2022-08-21T02:57:52;100190.81;;;21.89;53.12
40075;BME280;26529;51.530;11.754;2022-08-21T03:00:18;100193.75;;;21.86;53.36
40075;BME280;26529;51.530;11.754;2022-08-21T03:02:46;100190.34;;;21.84;53.33
40075;BME280;26529;51.530;11.754;2022-08-21T03:05:12;100189.59;;;21.82;53.26
40075;BME280;26529;51.530;11.754;2022-08-21T03:07:39;100197.50;;;21.84;53.26
40075;BME280;26529;51.530;11.754;2022-08-21T03:10:05;100197.59;;;21.82;53.14
40075;BME280;26529;51.530;11.754;2022-08-21T03:12:31;100197.38;;;21.85;53.05
40075;BME280;26529;51.530;11.754;2022-08-21T03:14:57;100200.78;;;21.87;52.92
40075;BME280;26529;51.530;11.754;2022-08-21T03:17:23;100192.03;;;21.85;52.91
40075;BME280;26529;51.530;11.754;2022-08-21T03:19:49;100199.28;;;21.83;52.97
40075;BME280;26529;51.530;11.754;2022-08-21T03:22:15;100185.22;;;21.81;52.92
40075;BME280;26529;51.530;11.754;2022-08-21T03:24:40;100187.19;;;21.79;52.99
40075;BME280;26529;51.530;11.754;2022-08-21T03:27:06;100188.47;;;21.73;53.14
40075;BME280;26529;51.530;11.754;2022-08-21T03:29:31;100179.28;;;21.77;53.14
40075;BME280;26529;51.530;11.754;2022-08-21T03:31:56;100185.69;;;21.75;53.18
40075;BME280;26529;51.530;11.754;2022-08-21T03:34:22;100190.81;;;21.78;52.81
40075;BME280;26529;51.530;11.754;2022-08-21T03:36:48;100182.31;;;21.73;53.14
40075;BME280;26529;51.530;11.754;2022-08-21T03:39:15;100184.50;;;21.79;53.13
40075;BME280;26529;51.530;11.754;2022-08-21T03:41:41;100178.91;;;21.71;53.10
40075;BME280;26529;51.530;11.754;2022-08-21T03:44:07;100189.59;;;21.71;53.08
40075;BME280;26529;51.530;11.754;2022-08-21T03:46:32;100188.63;;;21.72;52.98
40075;BME280;26529;51.530;11.754;2022-08-21T03:48:58;100192.97;;;21.73;53.06
40075;BME280;26529;51.530;11.754;2022-08-21T03:51:24;100198.75;;;21.66;52.82
40075;BME280;26529;51.530;11.754;2022-08-21T03:53:49;100188.94;;;21.67;52.90
40075;BME280;26529;51.530;11.754;2022-08-21T03:56:14;100197.25;;;21.62;53.04
40075;BME280;26529;51.530;11.754;2022-08-21T03:58:41;100196.88;;;21.55;53.17
40075;BME280;26529;51.530;11.754;2022-08-21T04:01:08;100200.91;;;21.61;53.21
40075;BME280;26529;51.530;11.754;2022-08-21T04:03:36;100201.38;;;21.55;52.99
40075;BME280;26529;51.530;11.754;2022-08-21T04:06:02;100203.91;;;21.57;52.98
40075;BME280;26529;51.530;11.754;2022-08-21T04:08:27;100206.94;;;21.52;53.09
40075;BME280;26529;51.530;11.754;2022-08-21T04:10:55;100214.69;;;21.55;52.79
40075;BME280;26529;51.530;11.754;2022-08-21T04:13:22;100214.84;;;21.53;52.79
40075;BME280;26529;51.530;11.754;2022-08-21T04:15:48;100213.97;;;21.53;52.67
40075;BME280;26529;51.530;11.754;2022-08-21T04:18:13;100211.31;;;21.53;52.89
40075;BME280;26529;51.530;11.754;2022-08-21T04:20:40;100218.06;;;21.46;52.92
40075;BME280;26529;51.530;11.754;2022-08-21T04:23:07;100214.94;;;21.52;52.70
40075;BME280;26529;51.530;11.754;2022-08-21T04:25:33;100210.16;;;21.44;52.95
40075;BME280;26529;51.530;11.754;2022-08-21T04:27:58;100220.84;;;21.44;52.74
40075;BME280;26529;51.530;11.754;2022-08-21T04:30:24;100224.84;;;21.50;52.92
40075;BME280;26529;51.530;11.754;2022-08-21T04:32:50;100217.34;;;21.44;52.87
40075;BME280;26529;51.530;11.754;2022-08-21T04:35:20;100225.34;;;21.44;52.80
40075;BME280;26529;51.530;11.754;2022-08-21T04:37:46;100228.47;;;21.37;52.93
40075;BME280;26529;51.530;11.754;2022-08-21T04:40:13;100222.38;;;21.35;53.00
40075;BME280;26529;51.530;11.754;2022-08-21T04:42:47;100235.59;;;21.37;52.80
40075;BME280;26529;51.530;11.754;2022-08-21T04:45:30;100229.63;;;21.33;52.87
40075;BME280;26529;51.530;11.754;2022-08-21T04:47:58;100234.97;;;21.33;52.90
40075;BME280;26529;51.530;11.754;2022-08-21T04:50:42;100237.03;;;21.30;52.97
40075;BME280;26529;51.530;11.754;2022-08-21T04:53:17;100234.34;;;21.30;52.76
40075;BME280;26529;51.530;11.754;2022-08-21T04:55:43;100229.25;;;21.26;52.93
40075;BME280;26529;51.530;11.754;2022-08-21T04:58:13;100220.28;;;21.27;53.13
40075;BME280;26529;51.530;11.754;2022-08-21T05:00:40;100225.72;;;21.26;52.80
40075;BME280;26529;51.530;11.754;2022-08-21T05:03:07;100224.03;;;21.25;52.86
40075;BME280;26529;51.530;11.754;2022-08-21T05:05:34;100230.09;;;21.27;53.05
40075;BME280;26529;51.530;11.754;2022-08-21T05:08:01;100237.56;;;21.22;53.15
40075;BME280;26529;51.530;11.754;2022-08-21T05:10:27;100235.97;;;21.19;52.95
40075;BME280;26529;51.530;11.754;2022-08-21T05:12:54;100243.13;;;21.19;53.02
40075;BME280;26529;51.530;11.754;2022-08-21T05:15:20;100234.16;;;21.20;52.83
40075;BME280;26529;51.530;11.754;2022-08-21T05:17:45;100239.75;;;21.17;52.92
40075;BME280;26529;51.530;11.754;2022-08-21T05:20:13;100237.81;;;21.19;52.76
40075;BME280;26529;51.530;11.754;2022-08-21T05:22:39;100236.22;;;21.16;52.87
40075;BME280;26529;51.530;11.754;2022-08-21T05:25:06;100238.97;;;21.14;52.94
40075;BME280;26529;51.530;11.754;2022-08-21T05:27:32;100247.22;;;21.11;52.95
40075;BME280;26529;51.530;11.754;2022-08-21T05:29:57;100248.91;;;21.12;52.94
40075;BME280;26529;51.530;11.754;2022-08-21T05:32:23;100248.69;;;21.15;52.60
40075;BME280;26529;51.530;11.754;2022-08-21T05:34:48;100244.31;;;21.14;52.69
40075;BME280;26529;51.530;11.754;2022-08-21T05:37:14;100257.88;;;21.11;52.85
40075;BME280;26529;51.530;11.754;2022-08-21T05:39:39;100253.00;;;21.05;52.88
40075;BME280;26529;51.530;11.754;2022-08-21T05:42:05;100257.00;;;21.11;52.74
40075;BME280;26529;51.530;11.754;2022-08-21T05:44:30;100257.34;;;21.06;53.14
40075;BME280;26529;51.530;11.754;2022-08-21T05:47:03;100255.22;;;21.11;52.81
40075;BME280;26529;51.530;11.754;2022-08-21T05:49:29;100259.78;;;21.09;52.71
40075;BME280;26529;51.530;11.754;2022-08-21T05:51:54;100263.66;;;21.05;52.87
40075;BME280;26529;51.530;11.754;2022-08-21T05:54:19;100267.28;;;21.04;52.83
40075;BME280;26529;51.530;11.754;2022-08-21T05:56:45;100267.50;;;21.01;53.02
40075;BME280;26529;51.530;11.754;2022-08-21T05:59:10;100274.53;;;21.02;53.01
40075;BME280;26529;51.530;11.754;2022-08-21T06:01:36;100264.09;;;20.99;52.95
40075;BME280;26529;51.530;11.754;2022-08-21T06:04:01;100272.81;;;21.01;53.01
40075;BME280;26529;51.530;11.754;2022-08-21T06:06:27;100270.16;;;21.01;52.81
40075;BME280;26529;51.530;11.754;2022-08-21T06:08:52;100271.34;;;20.97;53.04
40075;BME280;26529;51.530;11.754;2022-08-21T06:11:18;100270.38;;;20.98;52.87
40075;BME280;26529;51.530;11.754;2022-08-21T06:13:43;100279.13;;;21.00;52.92
40075;BME280;26529;51.530;11.754;2022-08-21T06:16:12;100271.34;;;20.97;53.03
40075;BME280;26529;51.530;11.754;2022-08-21T06:18:38;100273.25;;;20.95;53.13
40075;BME280;26529;51.530;11.754;2022-08-21T06:21:05;100271.47;;;20.95;53.06
40075;BME280;26529;51.530;11.754;2022-08-21T06:23:32;100270.59;;;20.95;53.12
40075;BME280;26529;51.530;11.754;2022-08-21T06:25:58;100272.41;;;20.94;53.15
40075;BME280;26529;51.530;11.754;2022-08-21T06:28:23;100272.19;;;20.97;52.97
40075;BME280;26529;51.530;11.754;2022-08-21T06:30:49;100266.03;;;20.97;53.04
40075;BME280;26529;51.530;11.754;2022-08-21T06:33:14;100271.56;;;20.94;53.32
40075;BME280;26529;51.530;11.754;2022-08-21T06:35:40;100269.13;;;20.91;53.17
40075;BME280;26529;51.530;11.754;2022-08-21T06:38:05;100269.63;;;20.96;53.25
40075;BME280;26529;51.530;11.754;2022-08-21T06:40:31;100266.97;;;20.96;53.04
40075;BME280;26529;51.530;11.754;2022-08-21T06:42:58;100271.56;;;20.94;53.45
40075;BME280;26529;51.530;11.754;2022-08-21T06:45:24;100270.50;;;20.96;53.67
40075;BME280;26529;51.530;11.754;2022-08-21T06:47:49;100271.13;;;21.00;53.42
40075;BME280;26529;51.530;11.754;2022-08-21T06:50:15;100276.69;;;20.97;53.83
40075;BME280;26529;51.530;11.754;2022-08-21T06:52:40;100267.50;;;21.01;53.49
40075;BME280;26529;51.530;11.754;2022-08-21T06:55:08;100263.66;;;21.05;53.65
40075;BME280;26529;51.530;11.754;2022-08-21T06:57:34;100262.06;;;21.03;53.77
40075;BME280;26529;51.530;11.754;2022-08-21T06:59:59;100271.66;;;21.05;53.85
40075;BME280;26529;51.530;11.754;2022-08-21T07:02:25;100262.16;;;21.01;53.63
40075;BME280;26529;51.530;11.754;2022-08-21T07:04:50;100270.38;;;20.98;53.96
40075;BME280;26529;51.530;11.754;2022-08-21T07:07:16;100265.06;;;20.98;54.11
40075;BME280;26529;51.530;11.754;2022-08-21T07:09:42;100266.03;;;20.97;54.08
40075;BME280;26529;51.530;11.754;2022-08-21T07:12:08;100267.72;;;20.98;54.08
40075;BME280;26529;51.530;11.754;2022-08-21T07:14:34;100258.97;;;20.96;53.97
40075;BME280;26529;51.530;11.754;2022-08-21T07:17:00;100257.06;;;20.98;54.07
40075;BME280;26529;51.530;11.754;2022-08-21T07:19:25;100255.22;;;20.98;53.87
40075;BME280;26529;51.530;11.754;2022-08-21T07:21:54;100250.97;;;21.09;53.79
40075;BME280;26529;51.530;11.754;2022-08-21T07:24:22;100256.00;;;21.00;53.83
40075;BME280;26529;51.530;11.754;2022-08-21T07:26:48;100252.47;;;21.00;53.95
40075;BME280;26529;51.530;11.754;2022-08-21T07:29:13;100259.28;;;21.04;53.93
40075;BME280;26529;51.530;11.754;2022-08-21T07:31:39;100253.19;;;21.02;53.99
40075;BME280;26529;51.530;11.754;2022-08-21T07:34:05;100256.63;;;21.04;54.00
40075;BME280;26529;51.530;11.754;2022-08-21T07:36:30;100248.38;;;21.07;53.81
40075;BME280;26529;51.530;11.754;2022-08-21T07:38:56;100257.59;;;21.03;53.98
40075;BME280;26529;51.530;11.754;2022-08-21T07:41:25;100260.66;;;21.10;53.86
40075;BME280;26529;51.530;11.754;2022-08-21T07:43:51;100264.19;;;21.10;53.67
40075;BME280;26529;51.530;11.754;2022-08-21T07:46:17;100254.00;;;21.15;53.73
40075;BME280;26529;51.530;11.754;2022-08-21T07:48:42;100256.47;;;21.19;53.82
40075;BME280;26529;51.530;11.754;2022-08-21T07:51:11;100258.16;;;21.20;53.85
40075;BME280;26529;51.530;11.754;2022-08-21T07:53:38;100254.53;;;21.21;53.82
40075;BME280;26529;51.530;11.754;2022-08-21T07:56:06;100249.94;;;21.23;53.66
40075;BME280;26529;51.530;11.754;2022-08-21T07:58:33;100252.09;;;21.18;53.75
40075;BME280;26529;51.530;11.754;2022-08-21T08:00:59;100249.94;;;21.23;53.93
40075;BME280;26529;51.530;11.754;2022-08-21T08:03:25;100247.09;;;21.13;54.14
40075;BME280;26529;51.530;11.754;2022-08-21T08:05:51;100247.16;;;21.24;53.84
40075;BME280;26529;51.530;11.754;2022-08-21T08:08:16;100249.38;;;21.31;53.55
40075;BME280;26529;51.530;11.754;2022-08-21T08:10:42;100248.41;;;21.32;53.68
40075;BME280;26529;51.530;11.754;2022-08-21T08:13:09;100246.72;;;21.31;53.72
40075;BME280;26529;51.530;11.754;2022-08-21T08:15:35;100248.84;;;21.38;53.69
40075;BME280;26529;51.530;11.754;2022-08-21T08:18:02;100249.78;;;21.37;53.82
40075;BME280;26529;51.530;11.754;2022-08-21T08:20:27;100247.34;;;21.34;53.73
40075;BME280;26529;51.530;11.754;2022-08-21T08:22:54;100246.69;;;21.44;53.65
40075;BME280;26529;51.530;11.754;2022-08-21T08:25:21;100246.88;;;21.40;53.86
40075;BME280;26529;51.530;11.754;2022-08-21T08:27:48;100247.75;;;21.41;53.41
40075;BME280;26529;51.530;11.754;2022-08-21T08:30:15;100243.25;;;21.41;53.62
40075;BME280;26529;51.530;11.754;2022-08-21T08:32:41;100236.75;;;21.46;53.56
40075;BME280;26529;51.530;11.754;2022-08-21T08:35:08;100235.03;;;21.45;53.66
40075;BME280;26529;51.530;11.754;2022-08-21T08:37:34;100240.38;;;21.45;53.73
40075;BME280;26529;51.530;11.754;2022-08-21T08:40:04;100241.84;;;21.49;53.66
40075;BME280;26529;51.530;11.754;2022-08-21T08:42:33;100234.13;;;21.57;53.24
40075;BME280;26529;51.530;11.754;2022-08-21T08:45:12;100231.69;;;21.54;53.29
40075;BME280;26529;51.530;11.754;2022-08-21T08:47:42;100232.91;;;21.61;53.28
40075;BME280;26529;51.530;11.754;2022-08-21T08:53:04;100236.56;;;21.60;53.36
40075;BME280;26529;51.530;11.754;2022-08-21T08:55:37;100233.66;;;21.63;53.41
40075;BME280;26529;51.530;11.754;2022-08-21T08:58:04;100240.41;;;21.69;53.29
40075;BME280;26529;51.530;11.754;2022-08-21T09:00:31;100244.41;;;21.75;53.25
40075;BME280;26529;51.530;11.754;2022-08-21T09:02:59;100236.28;;;21.76;53.45
40075;BME280;26529;51.530;11.754;2022-08-21T09:05:45;100237.38;;;21.74;53.21
40075;BME280;26529;51.530;11.754;2022-08-21T09:11:37;100239.06;;;21.75;53.49
40075;BME280;26529;51.530;11.754;2022-08-21T09:14:18;100238.41;;;21.84;53.71
40075;BME280;26529;51.530;11.754;2022-08-21T09:24:52;100220.69;;;21.94;53.67
40075;BME280;26529;51.530;11.754;2022-08-21T09:27:20;100226.91;;;21.95;53.79
40075;BME280;26529;51.530;11.754;2022-08-21T09:29:49;100225.91;;;21.96;54.01
40075;BME280;26529;51.530;11.754;2022-08-21T09:32:29;100213.41;;;21.96;53.82
40075;BME280;26529;51.530;11.754;2022-08-21T09:35:13;100224.38;;;22.05;53.68
40075;BME280;26529;51.530;11.754;2022-08-21T09:38:02;100221.56;;;22.06;53.57
40075;BME280;26529;51.530;11.754;2022-08-21T09:40:45;100221.94;;;22.13;53.53
40075;BME280;26529;51.530;11.754;2022-08-21T09:45:38;100230.22;;;22.21;53.75
40075;BME280;26529;51.530;11.754;2022-08-21T09:48:11;100234.47;;;22.24;53.63
40075;BME280;26529;51.530;11.754;2022-08-21T09:50:37;100225.38;;;22.27;53.68
40075;BME280;26529;51.530;11.754;2022-08-21T09:53:04;100227.78;;;22.30;53.54
40075;BME280;26529;51.530;11.754;2022-08-21T09:55:38;100221.63;;;22.29;53.57
40075;BME280;26529;51.530;11.754;2022-08-21T09:58:32;100228.53;;;22.32;53.53
40075;BME280;26529;51.530;11.754;2022-08-21T10:01:02;100224.28;;;22.41;53.55
40075;BME280;26529;51.530;11.754;2022-08-21T10:03:28;100228.66;;;22.42;53.48
40075;BME280;26529;51.530;11.754;2022-08-21T10:06:00;100232.19;;;22.42;53.55
40075;BME280;26529;51.530;11.754;2022-08-21T10:08:28;100222.63;;;22.51;53.55
40075;BME280;26529;51.530;11.754;2022-08-21T10:10:57;100220.03;;;22.49;53.40
40075;BME280;26529;51.530;11.754;2022-08-21T10:13:48;100221.88;;;22.49;53.42
40075;BME280;26529;51.530;11.754;2022-08-21T10:16:35;100222.25;;;22.56;53.51
40075;BME280;26529;51.530;11.754;2022-08-21T10:19:29;100214.47;;;22.64;53.01
40075;BME280;26529;51.530;11.754;2022-08-21T10:22:16;100213.53;;;22.65;53.04
40075;BME280;26529;51.530;11.754;2022-08-21T10:30:20;100216.78;;;22.80;53.04
40075;BME280;26529;51.530;11.754;2022-08-21T10:32:59;100215.06;;;22.79;53.03
40075;BME280;26529;51.530;11.754;2022-08-21T10:35:31;100213.38;;;22.89;52.86
40075;BME280;26529;51.530;11.754;2022-08-21T10:41:11;100208.38;;;22.96;52.62
40075;BME280;26529;51.530;11.754;2022-08-21T10:43:58;100209.47;;;22.94;52.77
40075;BME280;26529;51.530;11.754;2022-08-21T10:46:36;100205.91;;;23.04;52.90
40075;BME280;26529;51.530;11.754;2022-08-21T10:52:23;100199.47;;;23.07;52.82
40075;BME280;26529;51.530;11.754;2022-08-21T11:00:09;100201.63;;;23.25;52.87
40075;BME280;26529;51.530;11.754;2022-08-21T11:02:41;100200.41;;;23.29;52.80
40075;BME280;26529;51.530;11.754;2022-08-21T11:05:15;100198.56;;;23.29;52.97
40075;BME280;26529;51.530;11.754;2022-08-21T11:07:51;100198.34;;;23.33;52.95
40075;BME280;26529;51.530;11.754;2022-08-21T11:10:24;100196.97;;;23.38;52.89
40075;BME280;26529;51.530;11.754;2022-08-21T11:12:58;100196.88;;;23.40;52.70
40075;BME280;26529;51.530;11.754;2022-08-21T11:15:45;100195.88;;;23.41;52.67
40075;BME280;26529;51.530;11.754;2022-08-21T11:18:19;100189.75;;;23.50;52.66
40075;BME280;26529;51.530;11.754;2022-08-21T11:20:52;100188.00;;;23.61;52.92
40075;BME280;26529;51.530;11.754;2022-08-21T11:23:33;100183.38;;;23.63;52.46
40075;BME280;26529;51.530;11.754;2022-08-21T11:26:06;100181.56;;;23.63;52.77
40075;BME280;26529;51.530;11.754;2022-08-21T11:28:38;100181.69;;;23.62;53.07
40075;BME280;26529;51.530;11.754;2022-08-21T11:36:33;100178.69;;;23.76;52.57
40075;BME280;26529;51.530;11.754;2022-08-21T11:41:51;100172.09;;;23.80;52.70
40075;BME280;26529;51.530;11.754;2022-08-21T11:44:42;100170.84;;;23.84;52.18
40075;BME280;26529;51.530;11.754;2022-08-21T11:47:15;100179.44;;;23.88;52.24
40075;BME280;26529;51.530;11.754;2022-08-21T11:50:07;100173.25;;;23.88;52.50
40075;BME280;26529;51.530;11.754;2022-08-21T11:52:47;100165.81;;;23.91;52.29
40075;BME280;26529;51.530;11.754;2022-08-21T11:55:28;100163.44;;;23.98;52.16
40075;BME280;26529;51.530;11.754;2022-08-21T11:58:05;100166.00;;;23.99;52.31
40075;BME280;26529;51.530;11.754;2022-08-21T12:00:42;100151.50;;;24.02;52.16
40075;BME280;26529;51.530;11.754;2022-08-21T12:03:13;100165.09;;;24.10;52.21
40075;BME280;26529;51.530;11.754;2022-08-21T12:05:44;100158.91;;;24.10;52.10
40075;BME280;26529;51.530;11.754;2022-08-21T12:08:14;100160.72;;;24.09;52.03
40075;BME280;26529;51.530;11.754;2022-08-21T12:10:46;100157.22;;;24.19;51.33
40075;BME280;26529;51.530;11.754;2022-08-21T12:13:27;100160.91;;;24.18;52.00
40075;BME280;26529;51.530;11.754;2022-08-21T12:16:12;100157.22;;;24.19;51.90
40075;BME280;26529;51.530;11.754;2022-08-21T12:18:40;100151.63;;;24.22;52.09
40075;BME280;26529;51.530;11.754;2022-08-21T12:24:00;100144.75;;;24.29;51.44
40075;BME280;26529;51.530;11.754;2022-08-21T12:26:35;100148.84;;;24.33;51.75
40075;BME280;26529;51.530;11.754;2022-08-21T12:29:13;100144.34;;;24.34;51.54
40075;BME280;26529;51.530;11.754;2022-08-21T12:31:49;100145.78;;;24.38;51.55
40075;BME280;26529;51.530;11.754;2022-08-21T12:34:15;100146.59;;;24.38;51.23
40075;BME280;26529;51.530;11.754;2022-08-21T12:36:49;100147.75;;;24.46;51.42
40075;BME280;26529;51.530;11.754;2022-08-21T12:39:24;100148.31;;;24.49;51.50
40075;BME280;26529;51.530;11.754;2022-08-21T12:41:57;100143.25;;;24.46;50.87
40075;BME280;26529;51.530;11.754;2022-08-21T12:44:31;100147.22;;;24.52;51.20
40075;BME280;26529;51.530;11.754;2022-08-21T12:47:11;100153.00;;;24.57;51.27
40075;BME280;26529;51.530;11.754;2022-08-21T12:52:34;100141.88;;;24.62;51.14
40075;BME280;26529;51.530;11.754;2022-08-21T12:55:01;100150.66;;;24.64;50.67
40075;BME280;26529;51.530;11.754;2022-08-21T12:57:29;100136.84;;;24.69;50.59
40075;BME280;26529;51.530;11.754;2022-08-21T13:00:00;100142.31;;;24.67;50.86
40075;BME280;26529;51.530;11.754;2022-08-21T13:02:31;100139.66;;;24.77;50.95
40075;BME280;26529;51.530;11.754;2022-08-21T13:05:02;100137.69;;;24.79;50.38
40075;BME280;26529;51.530;11.754;2022-08-21T13:07:31;100128.13;;;24.86;50.76
40075;BME280;26529;51.530;11.754;2022-08-21T13:10:06;100128.97;;;24.87;50.27
40075;BME280;26529;51.530;11.754;2022-08-21T13:12:38;100128.28;;;24.85;50.14
40075;BME280;26529;51.530;11.754;2022-08-21T13:15:06;100125.31;;;24.88;50.89
40075;BME280;26529;51.530;11.754;2022-08-21T13:17:36;100118.28;;;24.97;49.81
40075;BME280;26529;51.530;11.754;2022-08-21T13:20:09;100126.31;;;24.97;50.48
40075;BME280;26529;51.530;11.754;2022-08-21T13:22:43;100117.28;;;24.98;50.68
40075;BME280;26529;51.530;11.754;2022-08-21T13:25:13;100121.38;;;25.02;50.89
40075;BME280;26529;51.530;11.754;2022-08-21T13:27:44;100112.78;;;25.08;50.74
40075;BME280;26529;51.530;11.754;2022-08-21T13:30:20;100124.91;;;25.12;50.95
40075;BME280;26529;51.530;11.754;2022-08-21T13:32:50;100119.69;;;25.11;50.67
40075;BME280;26529;51.530;11.754;2022-08-21T13:35:19;100121.41;;;25.22;50.81
40075;BME280;26529;51.530;11.754;2022-08-21T13:37:46;100122.78;;;25.26;50.68